Time;durP1;ratioP1;P1;durP2;ratioP2;P2;SDS_P1;SDS_P2;PMS_P1;PMS_P2;Temp;Humidity;BMP_temperature;BMP_pressure;BME280_temperature;BME280_humidity;BME280_pressure;Samples;Min_cycle;Max_cycle;Signal;HPM_P1;HPM_P2
2023/05/10 00:01:52;;;;;;;4.30;2.70;;;;;;;;;;5032123;28;20094;-77
2023/05/10 00:04:17;;;;;;;3.33;2.83;;;;;;;;;;5021453;28;20029;-77
2023/05/10 00:06:43;;;;;;;3.33;3.03;;;;;;;;;;5037454;28;20526;-77
2023/05/10 00:09:08;;;;;;;3.00;2.28;;;;;;;;;;5041925;28;20066;-77
2023/05/10 00:11:33;;;;;;;4.05;2.75;;;;;;;;;;5042599;28;20059;-77
2023/05/10 00:13:59;;;;;;;3.22;2.83;;;;;;;;;;5050243;28;20036;-76
2023/05/10 00:16:24;;;;;;;4.43;3.35;;;;;;;;;;5044614;28;20048;-76
2023/05/10 00:18:50;;;;;;;5.10;3.53;;;;;;;;;;5043428;28;20615;-77
2023/05/10 00:21:15;;;;;;;4.07;2.80;;;;;;;;;;5051727;28;20044;-77
2023/05/10 00:23:40;;;;;;;3.50;2.80;;;;;;;;;;5058333;28;20043;-77
2023/05/10 00:26:06;;;;;;;5.00;2.95;;;;;;;;;;5038063;28;20091;-77
2023/05/10 00:28:31;;;;;;;3.38;3.00;;;;;;;;;;5053056;28;20036;-77
2023/05/10 00:30:56;;;;;;;3.38;2.85;;;;;;;;;;5044428;28;20683;-75
2023/05/10 00:33:22;;;;;;;4.13;2.97;;;;;;;;;;5041553;28;20039;-76
2023/05/10 00:35:47;;;;;;;3.42;2.80;;;;;;;;;;5057656;28;20192;-77
2023/05/10 00:38:13;;;;;;;4.65;2.85;;;;;;;;;;5043624;28;20032;-78
2023/05/10 00:40:38;;;;;;;2.28;2.08;;;;;;;;;;5030305;28;20029;-77
2023/05/10 00:43:04;;;;;;;3.08;2.75;;;;;;;;;;5051424;28;20036;-78
2023/05/10 00:45:31;;;;;;;3.65;2.55;;;;;;;;;;5056649;28;20051;-77
2023/05/10 00:47:57;;;;;;;3.20;2.90;;;;;;;;;;5039728;28;20130;-77
2023/05/10 00:50:23;;;;;;;4.35;2.90;;;;;;;;;;5052878;28;20073;-78
2023/05/10 00:52:49;;;;;;;3.83;2.58;;;;;;;;;;5026918;28;20044;-77
2023/05/10 00:55:14;;;;;;;3.38;2.97;;;;;;;;;;5017581;28;20033;-78
2023/05/10 00:57:40;;;;;;;4.00;2.78;;;;;;;;;;5039650;28;20047;-77
2023/05/10 01:00:06;;;;;;;4.45;3.00;;;;;;;;;;5034314;28;20132;-77
2023/05/10 01:02:33;;;;;;;4.13;3.03;;;;;;;;;;5025573;28;20041;-77
2023/05/10 01:04:59;;;;;;;4.85;3.25;;;;;;;;;;5043734;28;20037;-78
2023/05/10 01:07:25;;;;;;;5.25;3.80;;;;;;;;;;5058896;28;20115;-78
2023/05/10 01:09:50;;;;;;;4.63;3.17;;;;;;;;;;5044199;28;20119;-78
2023/05/10 01:12:16;;;;;;;4.15;2.80;;;;;;;;;;5050353;28;20044;-77
2023/05/10 01:14:42;;;;;;;4.50;3.05;;;;;;;;;;5041475;28;20035;-78
2023/05/10 01:17:09;;;;;;;6.82;4.32;;;;;;;;;;5058142;28;20404;-77
2023/05/10 01:19:36;;;;;;;6.00;4.22;;;;;;;;;;5056295;28;20032;-77
2023/05/10 01:22:05;;;;;;;6.53;4.10;;;;;;;;;;5042736;28;20066;-77
2023/05/10 01:25:01;;;;;;;4.05;3.65;;;;;;;;;;5049114;28;20040;-77
2023/05/10 01:28:07;;;;;;;4.10;3.60;;;;;;;;;;5009297;28;20051;-78
2023/05/10 01:31:12;;;;;;;4.03;3.63;;;;;;;;;;5043739;28;20299;-77
2023/05/10 01:33:49;;;;;;;8.25;4.15;;;;;;;;;;5033460;28;20343;-77
2023/05/10 01:36:48;;;;;;;4.18;3.38;;;;;;;;;;5059035;28;20032;-77
2023/05/10 01:39:28;;;;;;;5.00;4.50;;;;;;;;;;5013619;28;20464;-78
2023/05/10 01:42:08;;;;;;;4.88;4.22;;;;;;;;;;5044009;28;20040;-77
2023/05/10 01:44:39;;;;;;;8.00;4.07;;;;;;;;;;5031363;28;20054;-78
2023/05/10 01:47:17;;;;;;;6.22;4.15;;;;;;;;;;5042020;28;20715;-78
2023/05/10 01:49:54;;;;;;;5.43;4.65;;;;;;;;;;4996236;28;20106;-78
2023/05/10 01:52:26;;;;;;;4.65;3.78;;;;;;;;;;5033610;28;20041;-78
2023/05/10 01:54:59;;;;;;;5.82;4.68;;;;;;;;;;5044344;28;20111;-77
2023/05/10 01:57:27;;;;;;;4.28;3.78;;;;;;;;;;5051975;28;20044;-78
2023/05/10 01:59:54;;;;;;;6.03;4.70;;;;;;;;;;5049369;28;20715;-77
2023/05/10 02:02:21;;;;;;;5.57;4.13;;;;;;;;;;5050217;28;20520;-77
2023/05/10 02:04:49;;;;;;;5.28;3.45;;;;;;;;;;5058318;28;20044;-77
2023/05/10 02:07:15;;;;;;;5.25;4.35;;;;;;;;;;5037390;28;20033;-77
2023/05/10 02:09:43;;;;;;;6.38;4.78;;;;;;;;;;5034918;28;20032;-77
2023/05/10 02:12:09;;;;;;;5.13;4.63;;;;;;;;;;5059102;28;20502;-76
2023/05/10 02:14:36;;;;;;;5.63;4.40;;;;;;;;;;5043889;28;20044;-76
2023/05/10 02:17:04;;;;;;;6.68;4.65;;;;;;;;;;5024728;28;20052;-77
2023/05/10 02:19:30;;;;;;;3.80;3.28;;;;;;;;;;5024736;28;20518;-78
2023/05/10 02:21:58;;;;;;;5.85;4.28;;;;;;;;;;5032567;28;20037;-78
2023/05/10 02:24:25;;;;;;;4.70;4.15;;;;;;;;;;5052731;28;20123;-77
2023/05/10 02:26:53;;;;;;;5.55;4.53;;;;;;;;;;5047131;28;20058;-78
2023/05/10 02:29:19;;;;;;;2.88;2.63;;;;;;;;;;5025114;28;20033;-78
2023/05/10 02:31:46;;;;;;;5.78;4.53;;;;;;;;;;5052577;28;20047;-77
2023/05/10 02:34:12;;;;;;;5.78;4.28;;;;;;;;;;5030999;28;20063;-78
2023/05/10 02:36:39;;;;;;;4.55;3.28;;;;;;;;;;5043518;28;20510;-78
2023/05/10 02:39:09;;;;;;;4.15;3.75;;;;;;;;;;5053781;28;20040;-78
2023/05/10 02:41:36;;;;;;;5.20;3.58;;;;;;;;;;5041531;28;20142;-78
2023/05/10 02:44:02;;;;;;;4.53;3.88;;;;;;;;;;5051765;28;20082;-78
2023/05/10 02:46:28;;;;;;;6.28;3.80;;;;;;;;;;5044415;28;20037;-78
2023/05/10 02:48:53;;;;;;;4.43;3.72;;;;;;;;;;5055847;28;20046;-77
2023/05/10 02:51:24;;;;;;;5.20;3.72;;;;;;;;;;5053445;28;20106;-78
2023/05/10 02:53:52;;;;;;;4.13;3.47;;;;;;;;;;5057857;28;20032;-79
2023/05/10 02:56:28;;;;;;;5.82;3.35;;;;;;;;;;5021252;28;20477;-77
2023/05/10 02:58:55;;;;;;;5.80;4.28;;;;;;;;;;5034217;28;20583;-79
2023/05/10 03:01:20;;;;;;;3.90;3.50;;;;;;;;;;5038617;28;20127;-78
2023/05/10 03:03:45;;;;;;;5.90;4.18;;;;;;;;;;5051086;28;20123;-77
2023/05/10 03:06:11;;;;;;;5.13;4.28;;;;;;;;;;5057298;28;20115;-79
2023/05/10 03:08:36;;;;;;;9.32;4.13;;;;;;;;;;5047086;28;20164;-79
2023/05/10 03:11:31;;;;;;;5.32;4.18;;;;;;;;;;5049409;28;20040;-79
2023/05/10 03:14:08;;;;;;;5.40;4.28;;;;;;;;;;5036382;28;20042;-78
2023/05/10 03:16:46;;;;;;;4.93;4.15;;;;;;;;;;5034182;28;20041;-78
2023/05/10 03:19:22;;;;;;;5.20;4.10;;;;;;;;;;5021127;28;20129;-77
2023/05/10 03:21:51;;;;;;;5.45;4.35;;;;;;;;;;5026479;28;20033;-77
2023/05/10 03:24:20;;;;;;;3.20;2.40;;;;;;;;;;5016229;28;20054;-78
2023/05/10 03:26:45;;;;;;;5.88;4.10;;;;;;;;;;5030751;28;20076;-77
2023/05/10 03:29:14;;;;;;;6.47;3.88;;;;;;;;;;5054851;28;20068;-76
2023/05/10 03:31:39;;;;;;;4.88;4.38;;;;;;;;;;5006111;28;20113;-77
2023/05/10 03:34:06;;;;;;;6.43;4.40;;;;;;;;;;5021382;28;20568;-77
2023/05/10 03:36:31;;;;;;;6.30;3.90;;;;;;;;;;5042928;28;20390;-77
2023/05/10 03:38:56;;;;;;;7.22;4.53;;;;;;;;;;5048022;28;20048;-78
2023/05/10 03:41:22;;;;;;;6.05;3.80;;;;;;;;;;5064398;28;20043;-78
2023/05/10 03:43:47;;;;;;;3.20;2.83;;;;;;;;;;5025397;28;20531;-77
2023/05/10 03:46:12;;;;;;;6.40;4.82;;;;;;;;;;5033811;28;20171;-77
2023/05/10 03:48:38;;;;;;;4.65;3.85;;;;;;;;;;5029444;28;20075;-77
2023/05/10 03:51:03;;;;;;;5.30;4.38;;;;;;;;;;5040261;28;20565;-77
2023/05/10 03:53:29;;;;;;;5.85;4.70;;;;;;;;;;5048374;28;20041;-78
2023/05/10 03:55:54;;;;;;;6.63;4.32;;;;;;;;;;5048667;28;20063;-77
2023/05/10 03:58:20;;;;;;;5.07;4.22;;;;;;;;;;5038699;28;20567;-77
2023/05/10 04:00:45;;;;;;;7.43;3.97;;;;;;;;;;5039194;28;20051;-78
2023/05/10 04:03:12;;;;;;;4.35;3.60;;;;;;;;;;5017297;28;20040;-77
2023/05/10 04:05:37;;;;;;;2.80;2.53;;;;;;;;;;4999104;28;20794;-77
2023/05/10 04:08:03;;;;;;;2.25;2.05;;;;;;;;;;5014363;28;20074;-76
2023/05/10 04:10:29;;;;;;;5.53;4.25;;;;;;;;;;5005926;28;20115;-78
2023/05/10 04:12:54;;;;;;;5.05;4.40;;;;;;;;;;4997204;28;20409;-77
2023/05/10 04:15:20;;;;;;;5.07;4.57;;;;;;;;;;5050917;28;20028;-77
2023/05/10 04:17:45;;;;;;;7.38;4.50;;;;;;;;;;5048114;28;20094;-77
2023/05/10 04:20:11;;;;;;;6.30;4.63;;;;;;;;;;5031860;28;20056;-77
2023/05/10 04:22:37;;;;;;;7.05;4.80;;;;;;;;;;5047251;28;20047;-76
2023/05/10 04:25:02;;;;;;;7.45;4.50;;;;;;;;;;5034881;28;20116;-77
2023/05/10 04:27:28;;;;;;;6.68;4.53;;;;;;;;;;5028167;28;20032;-77
2023/05/10 04:29:53;;;;;;;5.95;4.70;;;;;;;;;;5020787;28;20460;-77
2023/05/10 04:32:20;;;;;;;6.85;4.28;;;;;;;;;;5018176;28;20814;-77
2023/05/10 04:34:45;;;;;;;4.50;3.58;;;;;;;;;;5008926;28;20033;-77
2023/05/10 04:37:10;;;;;;;8.05;4.60;;;;;;;;;;5043052;28;20068;-77
2023/05/10 04:39:36;;;;;;;5.25;4.40;;;;;;;;;;5049965;28;20043;-78
2023/05/10 04:42:03;;;;;;;5.82;3.80;;;;;;;;;;5031755;28;20059;-77
2023/05/10 04:44:29;;;;;;;5.93;4.28;;;;;;;;;;5012346;28;20057;-77
2023/05/10 04:46:55;;;;;;;5.18;4.10;;;;;;;;;;5038429;28;20511;-77
2023/05/10 04:49:21;;;;;;;4.72;4.30;;;;;;;;;;5044761;28;20094;-76
2023/05/10 04:51:47;;;;;;;8.65;4.47;;;;;;;;;;5024449;28;20770;-77
2023/05/10 04:54:12;;;;;;;5.05;4.55;;;;;;;;;;5003439;28;20540;-76
2023/05/10 04:56:37;;;;;;;5.65;4.07;;;;;;;;;;5012278;28;20036;-77
2023/05/10 04:59:03;;;;;;;7.03;4.70;;;;;;;;;;5048019;28;20041;-77
2023/05/10 05:01:28;;;;;;;5.55;4.72;;;;;;;;;;5029810;28;20044;-76
2023/05/10 05:03:53;;;;;;;5.30;4.80;;;;;;;;;;5050512;28;20087;-77
2023/05/10 05:06:20;;;;;;;3.85;3.30;;;;;;;;;;5038118;28;20072;-78
2023/05/10 05:08:46;;;;;;;3.83;3.30;;;;;;;;;;5041732;28;20032;-78
2023/05/10 05:11:11;;;;;;;6.20;4.65;;;;;;;;;;5033799;28;20044;-77
2023/05/10 05:13:37;;;;;;;6.43;4.80;;;;;;;;;;5029513;28;20052;-77
2023/05/10 05:16:02;;;;;;;5.07;4.25;;;;;;;;;;5034084;28;20798;-78
2023/05/10 05:18:28;;;;;;;5.57;4.53;;;;;;;;;;5049710;28;20511;-77
2023/05/10 05:20:54;;;;;;;4.45;3.72;;;;;;;;;;5046749;28;20067;-76
2023/05/10 05:23:20;;;;;;;4.18;3.78;;;;;;;;;;5024948;28;20049;-76
2023/05/10 05:25:46;;;;;;;5.05;4.38;;;;;;;;;;5041317;28;20068;-77
2023/05/10 05:28:11;;;;;;;4.93;4.32;;;;;;;;;;5039489;28;20995;-78
2023/05/10 05:30:37;;;;;;;4.80;4.30;;;;;;;;;;5039673;28;20108;-77
2023/05/10 05:33:02;;;;;;;5.45;4.95;;;;;;;;;;5045604;28;20041;-77
2023/05/10 05:35:28;;;;;;;2.63;2.42;;;;;;;;;;5042257;28;20040;-78
2023/05/10 05:37:53;;;;;;;2.47;2.28;;;;;;;;;;5007173;28;20041;-77
2023/05/10 05:40:18;;;;;;;2.30;2.10;;;;;;;;;;5029145;28;20067;-77
2023/05/10 05:42:44;;;;;;;4.72;3.88;;;;;;;;;;5033430;28;20567;-76
2023/05/10 05:45:12;;;;;;;6.05;4.38;;;;;;;;;;5020988;28;20103;-76
2023/05/10 05:47:38;;;;;;;5.68;4.50;;;;;;;;;;5039941;28;20048;-77
2023/05/10 05:50:04;;;;;;;4.97;4.38;;;;;;;;;;5029595;28;20048;-78
2023/05/10 05:52:30;;;;;;;6.07;4.72;;;;;;;;;;5020856;28;20064;-79
2023/05/10 05:54:55;;;;;;;6.03;4.70;;;;;;;;;;5048898;28;20496;-79
2023/05/10 05:57:21;;;;;;;7.68;5.30;;;;;;;;;;5036176;28;20040;-80
2023/05/10 05:59:47;;;;;;;3.72;3.35;;;;;;;;;;5042336;28;20033;-79
2023/05/10 06:02:12;;;;;;;6.13;4.75;;;;;;;;;;5025592;28;20040;-80
2023/05/10 06:04:38;;;;;;;5.60;4.78;;;;;;;;;;5030336;28;20039;-79
2023/05/10 06:07:03;;;;;;;5.90;5.00;;;;;;;;;;5046744;28;20039;-79
2023/05/10 06:09:29;;;;;;;7.75;5.25;;;;;;;;;;5050473;28;20040;-79
2023/05/10 06:11:54;;;;;;;7.72;4.97;;;;;;;;;;5023026;28;20040;-79
2023/05/10 06:14:22;;;;;;;6.40;5.65;;;;;;;;;;5048966;28;20044;-80
2023/05/10 06:16:48;;;;;;;6.70;4.80;;;;;;;;;;5045779;28;20661;-78
2023/05/10 06:19:13;;;;;;;3.72;3.38;;;;;;;;;;5032208;28;20050;-79
2023/05/10 06:21:39;;;;;;;3.58;3.15;;;;;;;;;;5051165;28;20051;-80
2023/05/10 06:24:06;;;;;;;4.13;3.72;;;;;;;;;;5052287;28;20600;-80
2023/05/10 06:26:33;;;;;;;6.50;4.82;;;;;;;;;;5023180;28;20033;-78
2023/05/10 06:28:58;;;;;;;2.72;2.42;;;;;;;;;;5042787;28;20556;-79
2023/05/10 06:31:23;;;;;;;4.47;3.85;;;;;;;;;;5043775;28;20183;-79
2023/05/10 06:33:49;;;;;;;5.55;4.60;;;;;;;;;;5034912;28;20056;-79
2023/05/10 06:36:14;;;;;;;2.95;2.50;;;;;;;;;;5047710;28;20028;-80
2023/05/10 06:38:40;;;;;;;7.78;5.15;;;;;;;;;;5051579;28;20031;-78
2023/05/10 06:41:05;;;;;;;8.00;5.88;;;;;;;;;;5005830;28;20042;-78
2023/05/10 06:43:31;;;;;;;3.50;3.03;;;;;;;;;;5031946;28;20043;-79
2023/05/10 06:45:57;;;;;;;6.97;5.65;;;;;;;;;;5023018;28;20033;-77
2023/05/10 06:48:22;;;;;;;3.58;2.55;;;;;;;;;;5048186;28;20052;-78
2023/05/10 06:50:48;;;;;;;3.50;2.65;;;;;;;;;;5016989;28;20045;-79
2023/05/10 06:53:13;;;;;;;8.13;5.20;;;;;;;;;;5017215;28;20051;-78
2023/05/10 06:55:39;;;;;;;6.75;5.32;;;;;;;;;;5046148;28;20040;-79
2023/05/10 06:58:04;;;;;;;6.95;5.07;;;;;;;;;;5055212;28;20043;-80
2023/05/10 07:00:30;;;;;;;6.20;4.70;;;;;;;;;;5041399;28;20169;-78
2023/05/10 07:02:55;;;;;;;6.20;4.90;;;;;;;;;;5028400;28;20044;-78
2023/05/10 07:05:21;;;;;;;7.50;5.28;;;;;;;;;;5043797;28;20738;-78
2023/05/10 07:07:46;;;;;;;5.90;5.30;;;;;;;;;;5029121;28;20064;-78
2023/05/10 07:10:11;;;;;;;7.00;5.60;;;;;;;;;;5054013;28;20622;-78
2023/05/10 07:12:38;;;;;;;8.52;6.32;;;;;;;;;;5048853;28;20098;-78
2023/05/10 07:15:04;;;;;;;7.05;5.75;;;;;;;;;;5021842;28;20033;-77
2023/05/10 07:17:29;;;;;;;7.10;6.25;;;;;;;;;;5013831;28;20036;-78
2023/05/10 07:19:54;;;;;;;6.20;5.40;;;;;;;;;;5004365;28;20097;-78
2023/05/10 07:22:20;;;;;;;6.93;5.45;;;;;;;;;;5024977;28;20048;-79
2023/05/10 07:24:46;;;;;;;8.13;5.70;;;;;;;;;;5013685;28;20110;-78
2023/05/10 07:27:13;;;;;;;9.02;6.22;;;;;;;;;;5039380;28;20135;-79
2023/05/10 07:29:38;;;;;;;5.65;4.97;;;;;;;;;;5033031;28;20083;-78
2023/05/10 07:32:05;;;;;;;7.32;4.90;;;;;;;;;;5049893;28;20032;-79
2023/05/10 07:34:31;;;;;;;5.88;4.80;;;;;;;;;;5028228;28;20102;-78
2023/05/10 07:36:59;;;;;;;6.40;4.75;;;;;;;;;;5025369;28;20512;-77
2023/05/10 07:39:27;;;;;;;8.48;5.75;;;;;;;;;;5045755;28;20147;-77
2023/05/10 07:41:53;;;;;;;6.28;5.07;;;;;;;;;;5039945;28;20713;-78
2023/05/10 07:44:20;;;;;;;5.68;4.82;;;;;;;;;;5033352;28;20052;-79
2023/05/10 07:46:45;;;;;;;5.70;5.10;;;;;;;;;;5040402;28;20612;-79
2023/05/10 07:49:11;;;;;;;6.25;5.50;;;;;;;;;;5027045;28;20700;-80
2023/05/10 07:51:36;;;;;;;6.32;5.28;;;;;;;;;;5021366;28;20051;-80
2023/05/10 07:54:02;;;;;;;6.15;5.50;;;;;;;;;;5026073;28;20646;-79
2023/05/10 07:56:31;;;;;;;8.07;5.65;;;;;;;;;;4983743;28;20036;-79
2023/05/10 07:58:57;;;;;;;7.60;5.22;;;;;;;;;;4980672;28;20088;-79
2023/05/10 08:01:23;;;;;;;6.13;5.18;;;;;;;;;;5010140;28;20045;-79
2023/05/10 08:03:50;;;;;;;8.00;5.68;;;;;;;;;;4993737;28;20081;-80
2023/05/10 08:06:17;;;;;;;6.28;5.40;;;;;;;;;;5026711;28;20123;-79
2023/05/10 08:08:42;;;;;;;7.45;5.38;;;;;;;;;;5011375;28;20033;-79
2023/05/10 08:11:08;;;;;;;6.78;5.57;;;;;;;;;;5019057;28;20033;-79
2023/05/10 08:13:33;;;;;;;6.72;5.90;;;;;;;;;;5035592;28;20093;-79
2023/05/10 08:15:59;;;;;;;8.02;5.60;;;;;;;;;;5025397;28;20036;-78
2023/05/10 08:18:24;;;;;;;5.07;4.50;;;;;;;;;;5025942;28;20039;-77
2023/05/10 08:20:50;;;;;;;4.38;3.60;;;;;;;;;;5027830;28;20068;-78
2023/05/10 08:23:15;;;;;;;8.82;5.95;;;;;;;;;;5029143;28;20429;-78
2023/05/10 08:25:40;;;;;;;5.15;3.85;;;;;;;;;;5022757;28;20033;-77
2023/05/10 08:28:06;;;;;;;3.58;2.97;;;;;;;;;;5024782;28;20108;-77
2023/05/10 08:30:31;;;;;;;5.80;4.90;;;;;;;;;;5017512;28;20135;-79
2023/05/10 08:32:57;;;;;;;6.75;5.35;;;;;;;;;;5018953;28;20854;-79
2023/05/10 08:35:22;;;;;;;4.93;3.30;;;;;;;;;;5048271;28;20040;-79
2023/05/10 08:37:48;;;;;;;4.10;2.72;;;;;;;;;;5029838;28;20493;-79
2023/05/10 08:40:14;;;;;;;4.50;3.58;;;;;;;;;;4995342;28;20044;-79
2023/05/10 08:42:45;;;;;;;6.47;4.97;;;;;;;;;;5027766;28;20097;-78
2023/05/10 08:45:12;;;;;;;;;;;;;;;;;;5012889;28;20124;-78
2023/05/10 08:47:38;;;;;;;4.57;4.10;;;;;;;;;;5022378;28;19927;-78
2023/05/10 08:50:04;;;;;;;4.82;4.10;;;;;;;;;;5028609;28;20075;-79
2023/05/10 08:52:30;;;;;;;4.45;3.88;;;;;;;;;;5024083;28;20116;-79
2023/05/10 08:54:57;;;;;;;3.40;3.10;;;;;;;;;;5013533;28;20045;-78
2023/05/10 08:57:22;;;;;;;3.33;2.63;;;;;;;;;;5032245;28;20097;-78
2023/05/10 08:59:48;;;;;;;3.40;2.25;;;;;;;;;;5007924;28;20127;-77
2023/05/10 09:02:13;;;;;;;3.17;2.60;;;;;;;;;;5032156;28;20045;-78
2023/05/10 09:04:39;;;;;;;2.40;2.20;;;;;;;;;;5007229;28;20418;-79
2023/05/10 09:07:06;;;;;;;1.80;1.48;;;;;;;;;;5005740;28;20041;-77
2023/05/10 09:09:32;;;;;;;1.00;1.00;;;;;;;;;;5014538;28;20047;-78
2023/05/10 09:11:57;;;;;;;1.05;0.95;;;;;;;;;;5034158;28;20052;-78
2023/05/10 09:14:25;;;;;;;0.50;0.50;;;;;;;;;;5016464;28;20056;-77
2023/05/10 09:16:51;;;;;;;0.60;0.60;;;;;;;;;;5015954;28;20297;-78
2023/05/10 09:19:17;;;;;;;0.60;0.60;;;;;;;;;;4999478;28;20579;-78
2023/05/10 09:21:43;;;;;;;1.10;0.95;;;;;;;;;;5008116;28;20029;-77
2023/05/10 09:24:09;;;;;;;0.38;0.30;;;;;;;;;;5011775;28;20128;-77
2023/05/10 09:26:35;;;;;;;0.45;0.30;;;;;;;;;;5010544;28;20119;-79
2023/05/10 09:29:02;;;;;;;0.30;0.30;;;;;;;;;;5018699;28;20037;-78
2023/05/10 09:31:46;;;;;;;0.40;0.40;;;;;;;;;;5021126;28;20052;-77
2023/05/10 09:34:19;;;;;;;1.08;0.98;;;;;;;;;;5008043;28;20036;-77
2023/05/10 09:36:56;;;;;;;1.73;0.47;;;;;;;;;;5011698;28;20084;-78
2023/05/10 09:39:30;;;;;;;0.57;0.38;;;;;;;;;;5002794;28;20046;-77
2023/05/10 09:41:56;;;;;;;1.92;0.40;;;;;;;;;;5016408;28;20037;-78
2023/05/10 09:44:21;;;;;;;0.73;0.60;;;;;;;;;;5028892;28;20050;-77
2023/05/10 09:46:52;;;;;;;0.40;0.40;;;;;;;;;;5035164;28;20068;-80
2023/05/10 09:49:18;;;;;;;0.32;0.30;;;;;;;;;;5033833;28;20045;-77
2023/05/10 09:51:44;;;;;;;0.80;0.80;;;;;;;;;;5048626;28;20078;-77
2023/05/10 09:54:16;;;;;;;1.20;1.10;;;;;;;;;;5034126;28;20103;-78
2023/05/10 09:56:42;;;;;;;0.80;0.80;;;;;;;;;;5046872;28;20082;-78
2023/05/10 09:59:10;;;;;;;0.40;0.40;;;;;;;;;;5026435;28;20066;-78
2023/05/10 10:01:36;;;;;;;0.75;0.75;;;;;;;;;;5038980;28;20048;-77
2023/05/10 10:04:06;;;;;;;0.60;0.60;;;;;;;;;;5042088;28;20098;-77
2023/05/10 10:06:39;;;;;;;0.43;0.40;;;;;;;;;;5043063;28;20033;-78
2023/05/10 10:09:08;;;;;;;0.68;0.55;;;;;;;;;;5041159;28;20124;-78
2023/05/10 10:11:35;;;;;;;0.88;0.88;;;;;;;;;;5035118;28;20050;-78
2023/05/10 10:14:01;;;;;;;0.50;0.50;;;;;;;;;;5052066;28;20063;-78
2023/05/10 10:16:28;;;;;;;0.32;0.32;;;;;;;;;;5027466;28;20064;-78
2023/05/10 10:18:55;;;;;;;0.88;0.80;;;;;;;;;;5038624;28;20103;-77
2023/05/10 10:21:21;;;;;;;0.40;0.40;;;;;;;;;;5049133;28;20131;-77
2023/05/10 10:23:47;;;;;;;0.55;0.55;;;;;;;;;;5020013;28;20049;-77
2023/05/10 10:26:13;;;;;;;0.85;0.70;;;;;;;;;;5038514;28;20117;-78
2023/05/10 10:29:06;;;;;;;1.60;0.70;;;;;;;;;;5029786;28;20029;-78
2023/05/10 10:31:47;;;;;;;0.60;0.60;;;;;;;;;;5036860;28;20582;-78
2023/05/10 10:34:26;;;;;;;0.63;0.60;;;;;;;;;;5026378;28;20045;-78
2023/05/10 10:36:53;;;;;;;0.50;0.50;;;;;;;;;;5031067;28;20090;-77
2023/05/10 10:39:21;;;;;;;0.80;0.50;;;;;;;;;;5028872;28;20040;-78
2023/05/10 10:41:54;;;;;;;0.45;0.40;;;;;;;;;;5038735;28;20045;-78
2023/05/10 10:44:25;;;;;;;0.40;0.40;;;;;;;;;;5024569;28;20568;-77
2023/05/10 10:47:11;;;;;;;0.70;0.70;;;;;;;;;;5008974;28;20050;-78
2023/05/10 10:49:39;;;;;;;0.65;0.55;;;;;;;;;;5048330;28;20029;-79
2023/05/10 10:52:15;;;;;;;1.05;0.50;;;;;;;;;;5037994;28;20078;-78
2023/05/10 10:54:41;;;;;;;0.38;0.38;;;;;;;;;;5035170;28;20566;-79
2023/05/10 10:57:14;;;;;;;0.50;0.50;;;;;;;;;;5023269;28;20114;-79
2023/05/10 10:59:43;;;;;;;0.50;0.50;;;;;;;;;;5034021;28;20041;-78
2023/05/10 11:02:09;;;;;;;0.85;0.70;;;;;;;;;;5031913;28;20032;-79
2023/05/10 11:04:46;;;;;;;1.05;0.70;;;;;;;;;;5030784;28;20059;-79
2023/05/10 11:07:19;;;;;;;0.82;0.80;;;;;;;;;;5032970;28;20140;-78
2023/05/10 11:09:46;;;;;;;0.60;0.57;;;;;;;;;;5005157;28;20585;-78
2023/05/10 11:12:12;;;;;;;0.68;0.68;;;;;;;;;;5040512;28;20075;-79
2023/05/10 11:14:37;;;;;;;0.57;0.50;;;;;;;;;;5041138;28;20060;-79
2023/05/10 11:17:22;;;;;;;1.02;0.60;;;;;;;;;;5047869;28;20108;-78
2023/05/10 11:20:28;;;;;;;0.95;0.40;;;;;;;;;;5037348;28;20037;-79
2023/05/10 11:22:54;;;;;;;0.47;0.47;;;;;;;;;;4973560;28;20047;-78
2023/05/10 11:25:28;;;;;;;0.40;0.30;;;;;;;;;;5016995;28;20061;-78
2023/05/10 11:27:53;;;;;;;0.47;0.40;;;;;;;;;;5036433;28;20047;-78
2023/05/10 11:30:19;;;;;;;0.82;0.50;;;;;;;;;;5041334;28;20041;-79
2023/05/10 11:32:44;;;;;;;2.20;0.57;;;;;;;;;;5024484;28;20106;-78
2023/05/10 11:35:11;;;;;;;2.60;0.60;;;;;;;;;;5032614;28;20044;-79
2023/05/10 11:37:41;;;;;;;0.85;0.55;;;;;;;;;;5035784;28;20615;-78
2023/05/10 11:40:09;;;;;;;0.50;0.50;;;;;;;;;;5034185;28;20485;-78
2023/05/10 11:42:37;;;;;;;0.50;0.50;;;;;;;;;;5037984;28;20052;-79
2023/05/10 11:45:03;;;;;;;0.70;0.70;;;;;;;;;;5015181;28;20043;-79
2023/05/10 11:47:29;;;;;;;0.40;0.40;;;;;;;;;;5023300;28;20056;-79
2023/05/10 11:49:54;;;;;;;0.95;0.40;;;;;;;;;;5029073;28;20028;-78
2023/05/10 11:52:20;;;;;;;0.47;0.30;;;;;;;;;;5036892;28;20539;-78
2023/05/10 11:54:51;;;;;;;0.20;0.20;;;;;;;;;;5039810;28;20052;-79
2023/05/10 11:57:19;;;;;;;0.25;0.20;;;;;;;;;;5031170;28;20068;-78
2023/05/10 11:59:45;;;;;;;0.30;0.30;;;;;;;;;;5007828;28;20133;-79
2023/05/10 12:02:11;;;;;;;0.68;0.30;;;;;;;;;;5040784;28;20140;-78
2023/05/10 12:04:37;;;;;;;1.80;1.30;;;;;;;;;;5036996;28;20124;-80
2023/05/10 12:07:02;;;;;;;0.22;0.22;;;;;;;;;;5035535;28;20103;-78
2023/05/10 12:09:28;;;;;;;0.40;0.40;;;;;;;;;;5036670;28;20596;-79
2023/05/10 12:11:56;;;;;;;0.30;0.30;;;;;;;;;;5052455;28;20059;-78
2023/05/10 12:14:22;;;;;;;0.75;0.40;;;;;;;;;;5010028;28;20076;-78
2023/05/10 12:16:48;;;;;;;0.30;0.30;;;;;;;;;;5037679;28;20049;-78
2023/05/10 12:19:20;;;;;;;0.30;0.30;;;;;;;;;;5033281;28;20033;-78
2023/05/10 12:21:46;;;;;;;0.68;0.40;;;;;;;;;;5028696;28;20025;-79
2023/05/10 12:24:12;;;;;;;0.30;0.28;;;;;;;;;;5035779;28;20037;-78
2023/05/10 12:26:37;;;;;;;0.32;0.30;;;;;;;;;;5027698;28;20033;-78
2023/05/10 12:29:17;;;;;;;0.55;0.30;;;;;;;;;;5033800;28;20052;-78
2023/05/10 12:32:00;;;;;;;0.65;0.30;;;;;;;;;;5025713;28;20446;-78
2023/05/10 12:34:34;;;;;;;0.30;0.25;;;;;;;;;;5024241;28;20475;-79
2023/05/10 12:37:00;;;;;;;0.63;0.30;;;;;;;;;;5032200;28;20033;-78
2023/05/10 12:39:26;;;;;;;0.30;0.30;;;;;;;;;;5039226;28;20051;-78
2023/05/10 12:41:52;;;;;;;0.57;0.30;;;;;;;;;;5041949;28;20036;-78
2023/05/10 12:44:18;;;;;;;0.40;0.30;;;;;;;;;;5036186;28;20090;-79
2023/05/10 12:46:43;;;;;;;0.40;0.20;;;;;;;;;;5036719;28;20095;-78
2023/05/10 12:49:09;;;;;;;0.40;0.30;;;;;;;;;;5047299;28;20041;-78
2023/05/10 12:51:34;;;;;;;0.63;0.40;;;;;;;;;;5029597;28;20065;-79
2023/05/10 12:53:59;;;;;;;1.27;0.40;;;;;;;;;;5039756;28;20033;-78
2023/05/10 12:56:25;;;;;;;0.82;0.40;;;;;;;;;;5036732;28;20714;-79
2023/05/10 12:58:51;;;;;;;0.47;0.40;;;;;;;;;;5040094;28;20067;-79
2023/05/10 13:01:16;;;;;;;0.32;0.30;;;;;;;;;;5040202;28;20060;-78
2023/05/10 13:03:43;;;;;;;0.25;0.25;;;;;;;;;;5038553;28;20115;-78
2023/05/10 13:06:08;;;;;;;0.70;0.50;;;;;;;;;;5038391;28;20054;-79
2023/05/10 13:08:34;;;;;;;0.52;0.50;;;;;;;;;;5049335;28;20162;-79
2023/05/10 13:11:00;;;;;;;0.35;0.35;;;;;;;;;;5041605;28;20123;-78
2023/05/10 13:13:26;;;;;;;0.20;0.20;;;;;;;;;;5038856;28;20049;-79
2023/05/10 13:15:51;;;;;;;0.82;0.28;;;;;;;;;;5041224;28;20047;-78
2023/05/10 13:18:17;;;;;;;0.20;0.20;;;;;;;;;;5020159;28;20543;-79
2023/05/10 13:20:44;;;;;;;0.57;0.30;;;;;;;;;;5047748;28;20044;-79
2023/05/10 13:23:09;;;;;;;0.70;0.40;;;;;;;;;;5025255;28;20029;-78
2023/05/10 13:25:35;;;;;;;1.40;0.50;;;;;;;;;;5042309;28;20134;-79
2023/05/10 13:28:01;;;;;;;0.30;0.30;;;;;;;;;;5041328;28;20389;-78
2023/05/10 13:30:26;;;;;;;1.77;0.40;;;;;;;;;;5034719;28;20033;-78
2023/05/10 13:32:52;;;;;;;0.60;0.40;;;;;;;;;;5021737;28;20431;-79
2023/05/10 13:35:17;;;;;;;0.30;0.30;;;;;;;;;;5035750;28;20041;-78
2023/05/10 13:37:43;;;;;;;1.48;0.30;;;;;;;;;;5030196;28;20038;-78
2023/05/10 13:40:08;;;;;;;0.40;0.40;;;;;;;;;;5033460;28;20040;-80
2023/05/10 13:42:34;;;;;;;0.50;0.40;;;;;;;;;;5036124;28;20032;-78
2023/05/10 13:45:03;;;;;;;1.13;0.40;;;;;;;;;;5036379;28;20041;-79
2023/05/10 13:47:28;;;;;;;1.00;0.50;;;;;;;;;;5021388;28;20052;-79
2023/05/10 13:49:54;;;;;;;0.32;0.32;;;;;;;;;;5029827;28;20037;-79
2023/05/10 13:52:19;;;;;;;0.40;0.40;;;;;;;;;;5036391;28;20402;-79
2023/05/10 13:54:45;;;;;;;0.63;0.60;;;;;;;;;;5040549;28;20622;-79
2023/05/10 13:57:13;;;;;;;0.52;0.32;;;;;;;;;;5027970;28;20124;-78
2023/05/10 13:59:39;;;;;;;0.65;0.40;;;;;;;;;;5023828;28;20037;-78
2023/05/10 14:02:04;;;;;;;1.60;0.47;;;;;;;;;;5017315;28;20045;-79
2023/05/10 14:04:30;;;;;;;0.40;0.40;;;;;;;;;;5038077;28;20032;-78
2023/05/10 14:06:56;;;;;;;0.52;0.40;;;;;;;;;;5033729;28;20049;-79
2023/05/10 14:09:21;;;;;;;0.55;0.55;;;;;;;;;;5033121;28;20124;-79
2023/05/10 14:11:47;;;;;;;0.40;0.40;;;;;;;;;;5016388;28;20484;-80
2023/05/10 14:14:13;;;;;;;1.45;0.50;;;;;;;;;;5005072;28;20037;-79
2023/05/10 14:16:44;;;;;;;0.90;0.50;;;;;;;;;;5033771;28;20059;-78
2023/05/10 14:19:09;;;;;;;0.85;0.30;;;;;;;;;;5012658;28;20402;-78
2023/05/10 14:21:36;;;;;;;1.30;0.57;;;;;;;;;;5030304;28;20044;-80
2023/05/10 14:24:02;;;;;;;0.60;0.50;;;;;;;;;;5024297;28;20132;-79
2023/05/10 14:26:27;;;;;;;1.85;0.50;;;;;;;;;;5034766;28;20117;-78
2023/05/10 14:28:53;;;;;;;1.08;0.40;;;;;;;;;;5026355;28;20521;-78
2023/05/10 14:31:20;;;;;;;0.45;0.22;;;;;;;;;;5028195;28;20060;-79
2023/05/10 14:33:48;;;;;;;0.38;0.38;;;;;;;;;;5038376;28;20672;-79
2023/05/10 14:36:15;;;;;;;1.02;0.40;;;;;;;;;;5037151;28;20029;-78
2023/05/10 14:38:41;;;;;;;0.85;0.40;;;;;;;;;;5033176;28;20045;-78
2023/05/10 14:41:06;;;;;;;0.77;0.35;;;;;;;;;;5018595;28;20044;-78
2023/05/10 14:43:32;;;;;;;0.50;0.45;;;;;;;;;;5031544;28;20121;-79
2023/05/10 14:45:57;;;;;;;0.82;0.50;;;;;;;;;;5026254;28;20075;-78